Terminal Aerodrome Forecast
Issued by NWS

Home | Current Version | Previous Version | Graphics & Text | Print | Product List | Glossary On
Versions: 1 2 3 4 5 6 7 8 9 10 11 12 13 14 15 16 17
000
FTUS43 KMPX 061415 AAA
TAFRWF
TAF AMD
KRWF 061415Z 0614/0712 36008KT 5SM -SHRA BR BKN008 OVC015
     FM061600 34010G17KT P6SM -SHRA BKN020 OVC040
     FM061800 34012G20KT P6SM SCT025 BKN070
     FM062000 34011G18KT P6SM BKN100
     FM070000 32007KT P6SM SKC=

USA.gov is the U.S. government's official web portal to all federal, state and local government web resources and services.